Sacor II — CSGB2 — position and weather

sailwx.info

Track history (hours):
 
Tides and Currents Weather Stations Pressure Air Temp Water Temp Dewpoint Dewpoint Depression Visibility Wind Speed Wind Dir Waves Ship Positions

Sacor II

Last reported at 2017-Sep-24 03:53 UTC. Time now 2017-Sep-24 04:57 UTC.
Position N 38°41' W 009°12'.

Length 75 m; draft 3.5 m.

Type: Tanker. MMSI: 263702340.

Date/timePositionNaut miles runAvg speedWind from/ knotsBaromVisibWave heightAir tempDewpointWater temp
2017-Sep-24 03:53N 38°41' W 009°12'0 0.0
2017-Sep-24 03:26N 38°41' W 009°12'0 0.0
2017-Sep-24 02:53N 38°41' W 009°12'0 0.0
2017-Sep-24 02:26N 38°41' W 009°12'0 0.0
2017-Sep-24 01:59N 38°41' W 009°12'0 0.0
2017-Sep-24 01:29N 38°41' W 009°12'0 0.0
2017-Sep-24 00:59N 38°41' W 009°12'0 0.0
2017-Sep-24 00:26N 38°41' W 009°12'0 0.0
2017-Sep-23 23:38N 38°41' W 009°12'0 0.0
2017-Sep-23 23:17N 38°41' W 009°12'0 0.0
2017-Sep-23 22:53N 38°41' W 009°12'0 0.0
2017-Sep-23 22:26N 38°41' W 009°12'0 0.0
2017-Sep-23 21:53N 38°41' W 009°12'0 0.0
2017-Sep-23 21:08N 38°41' W 009°12'0 0.0
2017-Sep-23 20:56N 38°41' W 009°12'0 0.0
2017-Sep-23 20:30N 38°41' W 009°12'0 0.7
2017-Sep-23 19:58N 38°41' W 009°13'0 0.0
2017-Sep-22 01:57N 38°41' W 009°12'0 0.0
2017-Sep-22 01:12N 38°41' W 009°12'0 0.0
2017-Sep-22 00:39N 38°41' W 009°12'0 0.0
2017-Sep-22 00:12N 38°41' W 009°12'0 0.0
2017-Sep-21 23:42N 38°41' W 009°12'0 0.0
2017-Sep-21 22:33N 38°41' W 009°12'0 0.0
2017-Sep-21 22:18N 38°41' W 009°12'0 0.0
2017-Sep-21 21:57N 38°41' W 009°12'0 0.0
2017-Sep-21 21:00N 38°41' W 009°12'0 0.0
2017-Sep-21 20:06N 38°41' W 009°12'0 0.0
2017-Sep-21 19:54N 38°41' W 009°12'0 0.0
2017-Sep-21 18:24N 38°41' W 009°12'0 0.0
2017-Sep-21 18:00N 38°41' W 009°12'0 0.0
2017-Sep-21 15:06N 38°41' W 009°12'0 0.0
2017-Sep-21 14:57N 38°41' W 009°12'0 0.0
2017-Sep-21 14:12N 38°41' W 009°12'0 0.0
2017-Sep-21 13:57N 38°41' W 009°12'0 0.0
2017-Sep-21 13:12N 38°41' W 009°12'0 0.0
2017-Sep-21 12:06N 38°41' W 009°12'0 0.0
2017-Sep-21 10:48N 38°41' W 009°12'0 0.0
2017-Sep-21 10:12N 38°41' W 009°12'0 0.0
2017-Sep-21 09:54N 38°41' W 009°12'2 3.7
2017-Sep-21 09:29N 38°41' W 009°10'3 7.1
2017-Sep-21 09:00N 38°43' W 009°07'0 0.1
2017-Sep-21 08:07N 38°43' W 009°07'0 0.0
2017-Sep-21 07:58N 38°43' W 009°07'0 0.1
2017-Sep-21 07:22N 38°43' W 009°07'3 6.9
2017-Sep-21 06:59N 38°41' W 009°09'2 2.0
2017-Sep-21 05:48N 38°41' W 009°12'0 0.0
2017-Sep-21 05:27N 38°41' W 009°12'0 0.0
2017-Sep-21 04:57N 38°41' W 009°12'0 0.0
2017-Sep-21 03:48N 38°41' W 009°12'0 0.0
2017-Sep-21 03:30N 38°41' W 009°12'0 0.0
2017-Sep-21 02:57N 38°41' W 009°12'0 0.0
2017-Sep-21 02:09N 38°41' W 009°12'0 0.0
2017-Sep-21 02:00N 38°41' W 009°12'0 0.0
2017-Sep-21 00:33N 38°41' W 009°12'0 0.0
2017-Sep-21 00:30N 38°41' W 009°12'0 0.0
2017-Sep-20 23:33N 38°41' W 009°12'0 0.0
2017-Sep-20 23:27N 38°41' W 009°12'0 0.0
2017-Sep-20 21:45N 38°41' W 009°12'0 0.0
2017-Sep-20 21:27N 38°41' W 009°12'0 0.0
2017-Sep-20 20:48N 38°41' W 009°12'0 0.0
2017-Sep-20 20:15N 38°41' W 009°12'0 0.0
2017-Sep-20 19:54N 38°41' W 009°12'0 0.0
2017-Sep-20 15:39N 38°41' W 009°12'0 0.0
2017-Sep-20 15:27N 38°41' W 009°12'0 0.0
2017-Sep-20 15:00N 38°41' W 009°12'0 0.2
2017-Sep-20 13:19N 38°41' W 009°13'0 0.0
2017-Sep-20 12:59N 38°41' W 009°13'0 0.0
2017-Sep-20 12:26N 38°41' W 009°13'0 0.0
2017-Sep-20 11:59N 38°41' W 009°13'0 0.0
2017-Sep-20 11:20N 38°41' W 009°13'0 0.0
2017-Sep-20 10:56N 38°41' W 009°13'3 5.4
2017-Sep-20 10:27N 38°41' W 009°09'1 1.4
2017-Sep-20 09:31N 38°40' W 009°09'0 0.0
2017-Sep-20 09:19N 38°40' W 009°09'0 0.0
2017-Sep-20 08:49N 38°40' W 009°09'0 0.0
2017-Sep-20 08:31N 38°40' W 009°09'0 0.0
2017-Sep-20 08:01N 38°40' W 009°09'0 0.0
2017-Sep-20 07:16N 38°40' W 009°09'1 5.3
2017-Sep-20 07:00N 38°41' W 009°09'3 2.8
2017-Sep-20 06:00N 38°41' W 009°12'0 0.0
2017-Sep-20 05:27N 38°41' W 009°12'0 0.0
2017-Sep-20 03:21N 38°41' W 009°12'0 0.0
2017-Sep-20 03:00N 38°41' W 009°12'0 0.0
2017-Sep-20 00:12N 38°41' W 009°12'0 0.0
2017-Sep-19 23:54N 38°41' W 009°12'0 0.0
2017-Sep-19 23:30N 38°41' W 009°12'0 0.0
2017-Sep-19 23:00N 38°41' W 009°12'0 0.0
2017-Sep-19 22:27N 38°41' W 009°12'0 0.0
2017-Sep-19 22:00N 38°41' W 009°12'1 1.5
2017-Sep-19 21:25N 38°41' W 009°11'0 0.0
2017-Sep-19 20:52N 38°41' W 009°11'0 0.0
2017-Sep-19 19:58N 38°41' W 009°11'1 1.8
2017-Sep-19 19:16N 38°41' W 009°13'0 0.0
2017-Sep-19 18:58N 38°41' W 009°13'0 0.0
2017-Sep-19 16:58N 38°41' W 009°13'0 0.0
2017-Sep-19 15:58N 38°41' W 009°13'0 0.1
2017-Sep-19 15:06N 38°41' W 009°13'1 9.9
2017-Sep-19 15:00N 38°41' W 009°11'3 6.7
2017-Sep-19 14:30N 38°42' W 009°08'0 0.0
2017-Sep-19 14:00N 38°42' W 009°08'0 0.0
2017-Sep-19 13:30N 38°42' W 009°08'0 0.0
2017-Sep-19 13:00N 38°42' W 009°08'0 0.0
2017-Sep-19 12:30N 38°42' W 009°08'0 0.0
2017-Sep-19 12:00N 38°42' W 009°08'0 0.0
2017-Sep-19 11:30N 38°42' W 009°08'0 0.5
2017-Sep-19 11:00N 38°43' W 009°07'0 0.1
2017-Sep-19 10:29N 38°43' W 009°07'0 0.0
2017-Sep-19 09:59N 38°43' W 009°07'0 0.0
2017-Sep-19 09:29N 38°43' W 009°07'0 0.0
2017-Sep-19 08:58N 38°43' W 009°07'0 0.0
2017-Sep-19 08:28N 38°43' W 009°07'0 0.0
2017-Sep-19 07:58N 38°43' W 009°07'0 0.0
2017-Sep-19 07:28N 38°43' W 009°07'0 0.3
2017-Sep-19 07:00N 38°43' W 009°07'4 7.2
2017-Sep-19 06:30N 38°41' W 009°12'1 0.2
2017-Sep-19 04:08N 38°41' W 009°12'0 0.0
2017-Sep-19 03:53N 38°41' W 009°12'0 0.0
2017-Sep-19 02:41N 38°41' W 009°12'0 0.0
2017-Sep-19 02:29N 38°41' W 009°12'0 0.0
2017-Sep-19 01:20N 38°41' W 009°12'0 0.0
2017-Sep-18 22:50N 38°41' W 009°12'0 0.0
2017-Sep-18 22:20N 38°41' W 009°12'0 0.0
2017-Sep-18 21:53N 38°41' W 009°12'0 0.0
2017-Sep-18 20:56N 38°41' W 009°12'0 0.7
2017-Sep-18 20:26N 38°41' W 009°12'0 0.0
2017-Sep-18 19:53N 38°41' W 009°12'0 0.0
2017-Sep-18 19:23N 38°41' W 009°12'0 0.0
2017-Sep-18 18:59N 38°41' W 009°12'1 0.3
2017-Sep-18 16:58N 38°41' W 009°11'1 2.3
2017-Sep-18 16:28N 38°41' W 009°13'0 0.0
2017-Sep-18 15:58N 38°41' W 009°13'0 0.0
2017-Sep-18 15:28N 38°41' W 009°13'0 0.0
2017-Sep-18 14:43N 38°41' W 009°13'0 0.2
2017-Sep-18 14:18N 38°41' W 009°13'3 9.5
2017-Sep-18 13:59N 38°42' W 009°09'2 1.5
2017-Sep-18 12:28N 38°43' W 009°07'0 0.2
2017-Sep-18 11:20N 38°43' W 009°07'0 0.2
2017-Sep-18 10:05N 38°43' W 009°07'0 0.0
2017-Sep-18 09:59N 38°43' W 009°07'0 0.0
2017-Sep-18 09:29N 38°43' W 009°07'0 0.0
2017-Sep-18 08:59N 38°43' W 009°07'0 0.0
2017-Sep-18 08:29N 38°43' W 009°07'0 0.0
2017-Sep-18 07:59N 38°43' W 009°07'0 0.1
2017-Sep-18 07:26N 38°43' W 009°07'3 7.7
2017-Sep-18 07:00N 38°41' W 009°11'1 1.7
2017-Sep-18 06:18N 38°41' W 009°12'0 0.0
2017-Sep-18 05:51N 38°41' W 009°12'0 0.0
2017-Sep-18 05:21N 38°41' W 009°12'0 0.0
2017-Sep-18 04:27N 38°41' W 009°12'0 0.0
2017-Sep-18 03:51N 38°41' W 009°12'0 0.0
2017-Sep-18 01:57N 38°41' W 009°12'0 0.0
2017-Sep-17 21:57N 38°41' W 009°12'0 0.0
2017-Sep-17 21:09N 38°41' W 009°12'0 0.0
2017-Sep-17 20:45N 38°41' W 009°12'0 0.0
2017-Sep-17 20:27N 38°41' W 009°12'0 0.0
2017-Sep-17 19:51N 38°41' W 009°12'0 0.0
2017-Sep-17 19:09N 38°41' W 009°12'0 0.0
2017-Sep-17 18:51N 38°41' W 009°12'0 0.0
2017-Sep-17 18:30N 38°41' W 009°12'0 0.0
2017-Sep-17 17:33N 38°41' W 009°12'0 0.0
2017-Sep-17 17:03N 38°41' W 009°12'0 0.0
2017-Sep-17 16:03N 38°41' W 009°12'0 0.0
2017-Sep-17 15:54N 38°41' W 009°12'0 0.0
2017-Sep-17 15:27N 38°41' W 009°12'0 0.2
2017-Sep-17 15:00N 38°41' W 009°12'510.4
2017-Sep-17 14:30N 38°43' W 009°07'1 2.2
2017-Sep-17 13:58N 38°44' W 009°06'0 0.0
2017-Sep-17 13:28N 38°44' W 009°06'0 0.0
2017-Sep-17 12:58N 38°44' W 009°06'0 0.0
2017-Sep-17 12:25N 38°44' W 009°06'0 0.0
2017-Sep-17 11:52N 38°44' W 009°06'0 0.0
2017-Sep-17 11:28N 38°44' W 009°06'4 7.6
2017-Sep-17 11:00N 38°42' W 009°09'3 2.7
2017-Sep-17 09:55N 38°41' W 009°13'0 0.0
2017-Sep-17 08:19N 38°41' W 009°13'0 0.0
2017-Sep-17 07:43N 38°41' W 009°13'0 0.0
2017-Sep-17 07:31N 38°41' W 009°13'0 0.3
2017-Sep-17 05:59N 38°41' W 009°12'0 0.0
2017-Sep-17 05:05N 38°41' W 009°12'0 0.0
2017-Sep-17 04:56N 38°41' W 009°12'0 0.0
2017-Sep-17 04:29N 38°41' W 009°12'0 0.0
2017-Sep-17 03:59N 38°41' W 009°12'0 0.0
2017-Sep-17 03:23N 38°41' W 009°12'0 0.0
2017-Sep-17 02:02N 38°41' W 009°12'0 0.0
2017-Sep-17 00:41N 38°41' W 009°12'0 0.0
2017-Sep-16 23:44N 38°41' W 009°12'0 0.0
2017-Sep-16 23:23N 38°41' W 009°12'0 0.0
2017-Sep-16 22:59N 38°41' W 009°12'0 0.0
2017-Sep-16 22:23N 38°41' W 009°12'0 0.0
2017-Sep-16 21:47N 38°41' W 009°12'0 0.0
2017-Sep-16 21:17N 38°41' W 009°12'0 0.0
2017-Sep-16 20:53N 38°41' W 009°12'0 0.0
2017-Sep-16 20:11N 38°41' W 009°12'0 0.0
2017-Sep-16 19:59N 38°41' W 009°12'0 0.0
2017-Sep-16 19:11N 38°41' W 009°12'0 0.0
2017-Sep-16 18:59N 38°41' W 009°12'0 0.0
2017-Sep-16 18:11N 38°41' W 009°12'0 0.0
2017-Sep-16 17:53N 38°41' W 009°12'0 0.0
2017-Sep-16 17:20N 38°41' W 009°12'2 7.0
2017-Sep-16 17:00N 38°41' W 009°09'3 5.1
2017-Sep-16 16:29N 38°42' W 009°06'0 0.0
2017-Sep-16 15:59N 38°42' W 009°06'0 0.0
2017-Sep-16 15:29N 38°42' W 009°06'0 0.0
2017-Sep-16 14:59N 38°42' W 009°06'0 0.0
2017-Sep-16 14:29N 38°42' W 009°06'0 0.1
2017-Sep-16 13:56N 38°42' W 009°06'0 0.0
2017-Sep-16 13:29N 38°42' W 009°06'0 0.0
2017-Sep-16 12:53N 38°42' W 009°06'0 0.1
2017-Sep-16 12:30N 38°42' W 009°06'3 5.2
2017-Sep-16 11:58N 38°42' W 009°09'0 0.0
2017-Sep-16 11:28N 38°42' W 009°09'0 0.0
2017-Sep-16 10:55N 38°42' W 009°09'0 0.0
2017-Sep-16 10:13N 38°42' W 009°09'0 0.0
2017-Sep-16 09:58N 38°42' W 009°09'0 0.7
2017-Sep-16 09:30N 38°42' W 009°09'2 2.9
2017-Sep-16 08:59N 38°43' W 009°07'0 0.0
2017-Sep-16 08:29N 38°43' W 009°07'0 0.0
2017-Sep-16 07:56N 38°43' W 009°07'0 0.0
2017-Sep-16 07:29N 38°43' W 009°07'0 0.0
2017-Sep-16 06:59N 38°43' W 009°07'3 6.8
2017-Sep-16 06:29N 38°41' W 009°11'1 2.0
2017-Sep-16 06:00N 38°41' W 009°12'0 0.0
2017-Sep-16 05:24N 38°41' W 009°12'0 0.0
2017-Sep-16 04:39N 38°41' W 009°12'0 0.0
2017-Sep-16 03:45N 38°41' W 009°12'0 0.0
2017-Sep-16 03:27N 38°41' W 009°12'0 0.1
2017-Sep-16 00:51N 38°41' W 009°12'0 0.3
2017-Sep-16 00:30N 38°41' W 009°12'0 0.3
2017-Sep-16 00:00N 38°41' W 009°12'0 0.5
2017-Sep-15 23:21N 38°41' W 009°12'2 4.3
2017-Sep-15 22:57N 38°41' W 009°10'4 7.6
2017-Sep-15 22:26N 38°44' W 009°06'0 0.1
2017-Sep-15 17:52N 38°44' W 009°06'0 0.0
2017-Sep-15 17:30N 38°44' W 009°06'0 0.0
2017-Sep-15 16:51N 38°44' W 009°06'1 3.3
2017-Sep-15 16:30N 38°43' W 009°07'0 0.0
2017-Sep-15 16:00N 38°43' W 009°07'0 0.0
2017-Sep-15 15:30N 38°43' W 009°07'0 0.0
2017-Sep-15 14:57N 38°43' W 009°07'0 0.0
2017-Sep-15 14:30N 38°43' W 009°07'0 0.1
2017-Sep-15 14:00N 38°43' W 009°07'3 5.7
2017-Sep-15 13:29N 38°42' W 009°10'2 3.2
2017-Sep-15 12:48N 38°41' W 009°13'0 0.0
2017-Sep-15 12:24N 38°41' W 009°13'0 0.0
2017-Sep-15 11:18N 38°41' W 009°13'0 0.0
2017-Sep-15 09:15N 38°41' W 009°13'0 0.0
2017-Sep-15 08:48N 38°41' W 009°13'0 0.0
2017-Sep-15 07:24N 38°41' W 009°13'0 0.0
2017-Sep-15 06:48N 38°41' W 009°13'0 0.0
2017-Sep-15 06:18N 38°41' W 009°13'0 0.9
2017-Sep-15 06:00N 38°41' W 009°12'0 0.1
2017-Sep-15 04:05N 38°41' W 009°12'0 0.0
2017-Sep-15 03:47N 38°41' W 009°12'0 0.0
2017-Sep-15 02:53N 38°41' W 009°12'0 0.0
2017-Sep-15 02:17N 38°41' W 009°12'0 0.0
2017-Sep-15 00:08N 38°41' W 009°12'0 0.0
2017-Sep-14 21:50N 38°41' W 009°12'0 0.0
2017-Sep-14 21:14N 38°41' W 009°12'0 0.0
2017-Sep-14 20:53N 38°41' W 009°12'0 0.0
2017-Sep-14 20:23N 38°41' W 009°12'0 0.0
2017-Sep-14 19:53N 38°41' W 009°12'0 0.0
2017-Sep-14 19:29N 38°41' W 009°12'0 0.0
2017-Sep-14 18:56N 38°41' W 009°12'0 0.0
2017-Sep-14 15:50N 38°41' W 009°12'0 0.0
2017-Sep-14 15:29N 38°41' W 009°12'0 0.6
2017-Sep-14 15:00N 38°41' W 009°12'4 6.9
2017-Sep-14 14:28N 38°43' W 009°08'0 0.0
2017-Sep-14 13:55N 38°43' W 009°08'0 0.0
2017-Sep-14 13:22N 38°43' W 009°08'0 0.0
2017-Sep-14 12:31N 38°42' W 009°08'0 0.4
2017-Sep-14 12:28N 38°42' W 009°08'0 0.1
2017-Sep-14 11:58N 38°43' W 009°08'0 0.0
2017-Sep-14 11:28N 38°43' W 009°08'0 0.0
2017-Sep-14 10:52N 38°43' W 009°08'3 7.1
2017-Sep-14 10:31N 38°41' W 009°10'2 3.1
2017-Sep-14 10:00N 38°41' W 009°12'0 0.0
2017-Sep-14 08:48N 38°41' W 009°12'0 0.0
2017-Sep-14 08:24N 38°41' W 009°12'0 0.0
2017-Sep-14 07:42N 38°41' W 009°12'0 0.0
2017-Sep-14 05:45N 38°41' W 009°12'0 0.0
2017-Sep-14 05:27N 38°41' W 009°12'0 0.0
2017-Sep-14 04:57N 38°41' W 009°12'0 0.0
2017-Sep-14 04:15N 38°41' W 009°12'  
Track history (hours):
 
Tides and Currents Weather Stations Pressure Air Temp Water Temp Dewpoint Dewpoint Depression Visibility Wind Speed Wind Dir Waves Ship Positions

Sacor II

Last reported at 2017-Sep-24 03:53 UTC. Time now 2017-Sep-24 04:57 UTC.
Position N 38°41' W 009°12'.

Length 75 m; draft 3.5 m.

Type: Tanker. MMSI: 263702340.

Date/timePositionNaut miles runAvg speedWind from/ knotsBaromVisibWave heightAir tempDewpointWater temp
2017-Sep-24 03:53N 38°41' W 009°12'0 0.0
2017-Sep-24 03:26N 38°41' W 009°12'0 0.0
2017-Sep-24 02:53N 38°41' W 009°12'0 0.0
2017-Sep-24 02:26N 38°41' W 009°12'0 0.0
2017-Sep-24 01:59N 38°41' W 009°12'0 0.0
2017-Sep-24 01:29N 38°41' W 009°12'0 0.0
2017-Sep-24 00:59N 38°41' W 009°12'0 0.0
2017-Sep-24 00:26N 38°41' W 009°12'0 0.0
2017-Sep-23 23:38N 38°41' W 009°12'0 0.0
2017-Sep-23 23:17N 38°41' W 009°12'0 0.0
2017-Sep-23 22:53N 38°41' W 009°12'0 0.0
2017-Sep-23 22:26N 38°41' W 009°12'0 0.0
2017-Sep-23 21:53N 38°41' W 009°12'0 0.0
2017-Sep-23 21:08N 38°41' W 009°12'0 0.0
2017-Sep-23 20:56N 38°41' W 009°12'0 0.0
2017-Sep-23 20:30N 38°41' W 009°12'0 0.7
2017-Sep-23 19:58N 38°41' W 009°13'0 0.0
2017-Sep-22 01:57N 38°41' W 009°12'0 0.0
2017-Sep-22 01:12N 38°41' W 009°12'0 0.0
2017-Sep-22 00:39N 38°41' W 009°12'0 0.0
2017-Sep-22 00:12N 38°41' W 009°12'0 0.0
2017-Sep-21 23:42N 38°41' W 009°12'0 0.0
2017-Sep-21 22:33N 38°41' W 009°12'0 0.0
2017-Sep-21 22:18N 38°41' W 009°12'0 0.0
2017-Sep-21 21:57N 38°41' W 009°12'0 0.0
2017-Sep-21 21:00N 38°41' W 009°12'0 0.0
2017-Sep-21 20:06N 38°41' W 009°12'0 0.0
2017-Sep-21 19:54N 38°41' W 009°12'0 0.0
2017-Sep-21 18:24N 38°41' W 009°12'0 0.0
2017-Sep-21 18:00N 38°41' W 009°12'0 0.0
2017-Sep-21 15:06N 38°41' W 009°12'0 0.0
2017-Sep-21 14:57N 38°41' W 009°12'0 0.0
2017-Sep-21 14:12N 38°41' W 009°12'0 0.0
2017-Sep-21 13:57N 38°41' W 009°12'0 0.0
2017-Sep-21 13:12N 38°41' W 009°12'0 0.0
2017-Sep-21 12:06N 38°41' W 009°12'0 0.0
2017-Sep-21 10:48N 38°41' W 009°12'0 0.0
2017-Sep-21 10:12N 38°41' W 009°12'0 0.0
2017-Sep-21 09:54N 38°41' W 009°12'2 3.7
2017-Sep-21 09:29N 38°41' W 009°10'3 7.1
2017-Sep-21 09:00N 38°43' W 009°07'0 0.1
2017-Sep-21 08:07N 38°43' W 009°07'0 0.0
2017-Sep-21 07:58N 38°43' W 009°07'0 0.1
2017-Sep-21 07:22N 38°43' W 009°07'3 6.9
2017-Sep-21 06:59N 38°41' W 009°09'2 2.0
2017-Sep-21 05:48N 38°41' W 009°12'0 0.0
2017-Sep-21 05:27N 38°41' W 009°12'0 0.0
2017-Sep-21 04:57N 38°41' W 009°12'0 0.0
2017-Sep-21 03:48N 38°41' W 009°12'0 0.0
2017-Sep-21 03:30N 38°41' W 009°12'0 0.0
2017-Sep-21 02:57N 38°41' W 009°12'0 0.0
2017-Sep-21 02:09N 38°41' W 009°12'0 0.0
2017-Sep-21 02:00N 38°41' W 009°12'0 0.0
2017-Sep-21 00:33N 38°41' W 009°12'0 0.0
2017-Sep-21 00:30N 38°41' W 009°12'0 0.0
2017-Sep-20 23:33N 38°41' W 009°12'0 0.0
2017-Sep-20 23:27N 38°41' W 009°12'0 0.0
2017-Sep-20 21:45N 38°41' W 009°12'0 0.0
2017-Sep-20 21:27N 38°41' W 009°12'0 0.0
2017-Sep-20 20:48N 38°41' W 009°12'0 0.0
2017-Sep-20 20:15N 38°41' W 009°12'0 0.0
2017-Sep-20 19:54N 38°41' W 009°12'0 0.0
2017-Sep-20 15:39N 38°41' W 009°12'0 0.0
2017-Sep-20 15:27N 38°41' W 009°12'0 0.0
2017-Sep-20 15:00N 38°41' W 009°12'0 0.2
2017-Sep-20 13:19N 38°41' W 009°13'0 0.0
2017-Sep-20 12:59N 38°41' W 009°13'0 0.0
2017-Sep-20 12:26N 38°41' W 009°13'0 0.0
2017-Sep-20 11:59N 38°41' W 009°13'0 0.0
2017-Sep-20 11:20N 38°41' W 009°13'0 0.0
2017-Sep-20 10:56N 38°41' W 009°13'3 5.4
2017-Sep-20 10:27N 38°41' W 009°09'1 1.4
2017-Sep-20 09:31N 38°40' W 009°09'0 0.0
2017-Sep-20 09:19N 38°40' W 009°09'0 0.0
2017-Sep-20 08:49N 38°40' W 009°09'0 0.0
2017-Sep-20 08:31N 38°40' W 009°09'0 0.0
2017-Sep-20 08:01N 38°40' W 009°09'0 0.0
2017-Sep-20 07:16N 38°40' W 009°09'1 5.3
2017-Sep-20 07:00N 38°41' W 009°09'3 2.8
2017-Sep-20 06:00N 38°41' W 009°12'0 0.0
2017-Sep-20 05:27N 38°41' W 009°12'0 0.0
2017-Sep-20 03:21N 38°41' W 009°12'0 0.0
2017-Sep-20 03:00N 38°41' W 009°12'0 0.0
2017-Sep-20 00:12N 38°41' W 009°12'0 0.0
2017-Sep-19 23:54N 38°41' W 009°12'0 0.0
2017-Sep-19 23:30N 38°41' W 009°12'0 0.0
2017-Sep-19 23:00N 38°41' W 009°12'0 0.0
2017-Sep-19 22:27N 38°41' W 009°12'0 0.0
2017-Sep-19 22:00N 38°41' W 009°12'1 1.5
2017-Sep-19 21:25N 38°41' W 009°11'0 0.0
2017-Sep-19 20:52N 38°41' W 009°11'0 0.0
2017-Sep-19 19:58N 38°41' W 009°11'1 1.8
2017-Sep-19 19:16N 38°41' W 009°13'0 0.0
2017-Sep-19 18:58N 38°41' W 009°13'0 0.0
2017-Sep-19 16:58N 38°41' W 009°13'0 0.0
2017-Sep-19 15:58N 38°41' W 009°13'0 0.1
2017-Sep-19 15:06N 38°41' W 009°13'1 9.9
2017-Sep-19 15:00N 38°41' W 009°11'3 6.7
2017-Sep-19 14:30N 38°42' W 009°08'0 0.0
2017-Sep-19 14:00N 38°42' W 009°08'0 0.0
2017-Sep-19 13:30N 38°42' W 009°08'0 0.0
2017-Sep-19 13:00N 38°42' W 009°08'0 0.0
2017-Sep-19 12:30N 38°42' W 009°08'0 0.0
2017-Sep-19 12:00N 38°42' W 009°08'0 0.0
2017-Sep-19 11:30N 38°42' W 009°08'0 0.5
2017-Sep-19 11:00N 38°43' W 009°07'0 0.1
2017-Sep-19 10:29N 38°43' W 009°07'0 0.0
2017-Sep-19 09:59N 38°43' W 009°07'0 0.0
2017-Sep-19 09:29N 38°43' W 009°07'0 0.0
2017-Sep-19 08:58N 38°43' W 009°07'0 0.0
2017-Sep-19 08:28N 38°43' W 009°07'0 0.0
2017-Sep-19 07:58N 38°43' W 009°07'0 0.0
2017-Sep-19 07:28N 38°43' W 009°07'0 0.3
2017-Sep-19 07:00N 38°43' W 009°07'4 7.2
2017-Sep-19 06:30N 38°41' W 009°12'1 0.2
2017-Sep-19 04:08N 38°41' W 009°12'0 0.0
2017-Sep-19 03:53N 38°41' W 009°12'0 0.0
2017-Sep-19 02:41N 38°41' W 009°12'0 0.0
2017-Sep-19 02:29N 38°41' W 009°12'0 0.0
2017-Sep-19 01:20N 38°41' W 009°12'0 0.0
2017-Sep-18 22:50N 38°41' W 009°12'0 0.0
2017-Sep-18 22:20N 38°41' W 009°12'0 0.0
2017-Sep-18 21:53N 38°41' W 009°12'0 0.0
2017-Sep-18 20:56N 38°41' W 009°12'0 0.7
2017-Sep-18 20:26N 38°41' W 009°12'0 0.0
2017-Sep-18 19:53N 38°41' W 009°12'0 0.0
2017-Sep-18 19:23N 38°41' W 009°12'0 0.0
2017-Sep-18 18:59N 38°41' W 009°12'1 0.3
2017-Sep-18 16:58N 38°41' W 009°11'1 2.3
2017-Sep-18 16:28N 38°41' W 009°13'0 0.0
2017-Sep-18 15:58N 38°41' W 009°13'0 0.0
2017-Sep-18 15:28N 38°41' W 009°13'0 0.0
2017-Sep-18 14:43N 38°41' W 009°13'0 0.2
2017-Sep-18 14:18N 38°41' W 009°13'3 9.5
2017-Sep-18 13:59N 38°42' W 009°09'2 1.5
2017-Sep-18 12:28N 38°43' W 009°07'0 0.2
2017-Sep-18 11:20N 38°43' W 009°07'0 0.2
2017-Sep-18 10:05N 38°43' W 009°07'0 0.0
2017-Sep-18 09:59N 38°43' W 009°07'0 0.0
2017-Sep-18 09:29N 38°43' W 009°07'0 0.0
2017-Sep-18 08:59N 38°43' W 009°07'0 0.0
2017-Sep-18 08:29N 38°43' W 009°07'0 0.0
2017-Sep-18 07:59N 38°43' W 009°07'0 0.1
2017-Sep-18 07:26N 38°43' W 009°07'3 7.7
2017-Sep-18 07:00N 38°41' W 009°11'1 1.7
2017-Sep-18 06:18N 38°41' W 009°12'0 0.0
2017-Sep-18 05:51N 38°41' W 009°12'0 0.0
2017-Sep-18 05:21N 38°41' W 009°12'0 0.0
2017-Sep-18 04:27N 38°41' W 009°12'0 0.0
2017-Sep-18 03:51N 38°41' W 009°12'0 0.0
2017-Sep-18 01:57N 38°41' W 009°12'0 0.0
2017-Sep-17 21:57N 38°41' W 009°12'0 0.0
2017-Sep-17 21:09N 38°41' W 009°12'0 0.0
2017-Sep-17 20:45N 38°41' W 009°12'0 0.0
2017-Sep-17 20:27N 38°41' W 009°12'0 0.0
2017-Sep-17 19:51N 38°41' W 009°12'0 0.0
2017-Sep-17 19:09N 38°41' W 009°12'0 0.0
2017-Sep-17 18:51N 38°41' W 009°12'0 0.0
2017-Sep-17 18:30N 38°41' W 009°12'0 0.0
2017-Sep-17 17:33N 38°41' W 009°12'0 0.0
2017-Sep-17 17:03N 38°41' W 009°12'0 0.0
2017-Sep-17 16:03N 38°41' W 009°12'0 0.0
2017-Sep-17 15:54N 38°41' W 009°12'0 0.0
2017-Sep-17 15:27N 38°41' W 009°12'0 0.2
2017-Sep-17 15:00N 38°41' W 009°12'510.4
2017-Sep-17 14:30N 38°43' W 009°07'1 2.2
2017-Sep-17 13:58N 38°44' W 009°06'0 0.0
2017-Sep-17 13:28N 38°44' W 009°06'0 0.0
2017-Sep-17 12:58N 38°44' W 009°06'0 0.0
2017-Sep-17 12:25N 38°44' W 009°06'0 0.0
2017-Sep-17 11:52N 38°44' W 009°06'0 0.0
2017-Sep-17 11:28N 38°44' W 009°06'4 7.6
2017-Sep-17 11:00N 38°42' W 009°09'3 2.7
2017-Sep-17 09:55N 38°41' W 009°13'0 0.0
2017-Sep-17 08:19N 38°41' W 009°13'0 0.0
2017-Sep-17 07:43N 38°41' W 009°13'0 0.0
2017-Sep-17 07:31N 38°41' W 009°13'0 0.3
2017-Sep-17 05:59N 38°41' W 009°12'0 0.0
2017-Sep-17 05:05N 38°41' W 009°12'0 0.0
2017-Sep-17 04:56N 38°41' W 009°12'0 0.0
2017-Sep-17 04:29N 38°41' W 009°12'0 0.0
2017-Sep-17 03:59N 38°41' W 009°12'0 0.0
2017-Sep-17 03:23N 38°41' W 009°12'0 0.0
2017-Sep-17 02:02N 38°41' W 009°12'0 0.0
2017-Sep-17 00:41N 38°41' W 009°12'0 0.0
2017-Sep-16 23:44N 38°41' W 009°12'0 0.0
2017-Sep-16 23:23N 38°41' W 009°12'0 0.0
2017-Sep-16 22:59N 38°41' W 009°12'0 0.0
2017-Sep-16 22:23N 38°41' W 009°12'0 0.0
2017-Sep-16 21:47N 38°41' W 009°12'0 0.0
2017-Sep-16 21:17N 38°41' W 009°12'0 0.0
2017-Sep-16 20:53N 38°41' W 009°12'0 0.0
2017-Sep-16 20:11N 38°41' W 009°12'0 0.0
2017-Sep-16 19:59N 38°41' W 009°12'0 0.0
2017-Sep-16 19:11N 38°41' W 009°12'0 0.0
2017-Sep-16 18:59N 38°41' W 009°12'0 0.0
2017-Sep-16 18:11N 38°41' W 009°12'0 0.0
2017-Sep-16 17:53N 38°41' W 009°12'0 0.0
2017-Sep-16 17:20N 38°41' W 009°12'2 7.0
2017-Sep-16 17:00N 38°41' W 009°09'3 5.1
2017-Sep-16 16:29N 38°42' W 009°06'0 0.0
2017-Sep-16 15:59N 38°42' W 009°06'0 0.0
2017-Sep-16 15:29N 38°42' W 009°06'0 0.0
2017-Sep-16 14:59N 38°42' W 009°06'0 0.0
2017-Sep-16 14:29N 38°42' W 009°06'0 0.1
2017-Sep-16 13:56N 38°42' W 009°06'0 0.0
2017-Sep-16 13:29N 38°42' W 009°06'0 0.0
2017-Sep-16 12:53N 38°42' W 009°06'0 0.1
2017-Sep-16 12:30N 38°42' W 009°06'3 5.2
2017-Sep-16 11:58N 38°42' W 009°09'0 0.0
2017-Sep-16 11:28N 38°42' W 009°09'0 0.0
2017-Sep-16 10:55N 38°42' W 009°09'0 0.0
2017-Sep-16 10:13N 38°42' W 009°09'0 0.0
2017-Sep-16 09:58N 38°42' W 009°09'0 0.7
2017-Sep-16 09:30N 38°42' W 009°09'2 2.9
2017-Sep-16 08:59N 38°43' W 009°07'0 0.0
2017-Sep-16 08:29N 38°43' W 009°07'0 0.0
2017-Sep-16 07:56N 38°43' W 009°07'0 0.0
2017-Sep-16 07:29N 38°43' W 009°07'0 0.0
2017-Sep-16 06:59N 38°43' W 009°07'3 6.8
2017-Sep-16 06:29N 38°41' W 009°11'1 2.0
2017-Sep-16 06:00N 38°41' W 009°12'0 0.0
2017-Sep-16 05:24N 38°41' W 009°12'0 0.0
2017-Sep-16 04:39N 38°41' W 009°12'0 0.0
2017-Sep-16 03:45N 38°41' W 009°12'0 0.0
2017-Sep-16 03:27N 38°41' W 009°12'0 0.1
2017-Sep-16 00:51N 38°41' W 009°12'0 0.3
2017-Sep-16 00:30N 38°41' W 009°12'0 0.3
2017-Sep-16 00:00N 38°41' W 009°12'0 0.5
2017-Sep-15 23:21N 38°41' W 009°12'2 4.3
2017-Sep-15 22:57N 38°41' W 009°10'4 7.6
2017-Sep-15 22:26N 38°44' W 009°06'0 0.1
2017-Sep-15 17:52N 38°44' W 009°06'0 0.0
2017-Sep-15 17:30N 38°44' W 009°06'0 0.0
2017-Sep-15 16:51N 38°44' W 009°06'1 3.3
2017-Sep-15 16:30N 38°43' W 009°07'0 0.0
2017-Sep-15 16:00N 38°43' W 009°07'0 0.0
2017-Sep-15 15:30N 38°43' W 009°07'0 0.0
2017-Sep-15 14:57N 38°43' W 009°07'0 0.0
2017-Sep-15 14:30N 38°43' W 009°07'0 0.1
2017-Sep-15 14:00N 38°43' W 009°07'3 5.7
2017-Sep-15 13:29N 38°42' W 009°10'2 3.2
2017-Sep-15 12:48N 38°41' W 009°13'0 0.0
2017-Sep-15 12:24N 38°41' W 009°13'0 0.0
2017-Sep-15 11:18N 38°41' W 009°13'0 0.0
2017-Sep-15 09:15N 38°41' W 009°13'0 0.0
2017-Sep-15 08:48N 38°41' W 009°13'0 0.0
2017-Sep-15 07:24N 38°41' W 009°13'0 0.0
2017-Sep-15 06:48N 38°41' W 009°13'0 0.0
2017-Sep-15 06:18N 38°41' W 009°13'0 0.9
2017-Sep-15 06:00N 38°41' W 009°12'0 0.1
2017-Sep-15 04:05N 38°41' W 009°12'0 0.0
2017-Sep-15 03:47N 38°41' W 009°12'0 0.0
2017-Sep-15 02:53N 38°41' W 009°12'0 0.0
2017-Sep-15 02:17N 38°41' W 009°12'0 0.0
2017-Sep-15 00:08N 38°41' W 009°12'0 0.0
2017-Sep-14 21:50N 38°41' W 009°12'0 0.0
2017-Sep-14 21:14N 38°41' W 009°12'0 0.0
2017-Sep-14 20:53N 38°41' W 009°12'0 0.0
2017-Sep-14 20:23N 38°41' W 009°12'0 0.0
2017-Sep-14 19:53N 38°41' W 009°12'0 0.0
2017-Sep-14 19:29N 38°41' W 009°12'0 0.0
2017-Sep-14 18:56N 38°41' W 009°12'0 0.0
2017-Sep-14 15:50N 38°41' W 009°12'0 0.0
2017-Sep-14 15:29N 38°41' W 009°12'0 0.6
2017-Sep-14 15:00N 38°41' W 009°12'4 6.9
2017-Sep-14 14:28N 38°43' W 009°08'0 0.0
2017-Sep-14 13:55N 38°43' W 009°08'0 0.0
2017-Sep-14 13:22N 38°43' W 009°08'0 0.0
2017-Sep-14 12:31N 38°42' W 009°08'0 0.4
2017-Sep-14 12:28N 38°42' W 009°08'0 0.1
2017-Sep-14 11:58N 38°43' W 009°08'0 0.0
2017-Sep-14 11:28N 38°43' W 009°08'0 0.0
2017-Sep-14 10:52N 38°43' W 009°08'3 7.1
2017-Sep-14 10:31N 38°41' W 009°10'2 3.1
2017-Sep-14 10:00N 38°41' W 009°12'0 0.0
2017-Sep-14 08:48N 38°41' W 009°12'0 0.0
2017-Sep-14 08:24N 38°41' W 009°12'0 0.0
2017-Sep-14 07:42N 38°41' W 009°12'0 0.0
2017-Sep-14 05:45N 38°41' W 009°12'0 0.0
2017-Sep-14 05:27N 38°41' W 009°12'0 0.0
2017-Sep-14 04:57N 38°41' W 009°12'0 0.0
2017-Sep-14 04:15N 38°41' W 009°12'  

Dump ship's entire track history